Airfield :
LOGIN :

Register | Disclaimer

   EN    FR    IT 

 










Legend :    VFR   Marginal VFR   IFR   Intensive IFR   Very Intensive IFR
Visi :
Ceiling :
>= 8 km
>= 3000ft
5 to 8 km
1000 to 3000 ft
1500m to 5 km
500 to 1000 ft
800 to 1500m
200 to 500 ft
< 800m
< 200 ft
Symbols :   Thunderstorms  Fog  Heavy snow  Heavy precipitations  Wind > 20 kt
SIGMETs :     Misc.  Thunderstorms  Icing  Turbulence  Mountain Waves  Volcanic Ashes







- Airport Elevation : 267 ft


EGDR - Culdrose Navy

CURRENT METAR :
  • 201350Z 20020G34KT 5000 HZ SCT005 BKN010 17/16 Q1007 YLO1 TEMPO 2000 BR SCT005 YLO2

EXPIRED METARs :
  • 201250Z 20019G36KT 4000 HZ SCT005 BKN010 18/17 Q1007 YLO1 TEMPO 2000 BR SCT005 YLO2
  • 201150Z 20018G31KT 4000 BR SCT005 BKN010 17/16 Q1008 REDZ YLO1 TEMPO 2000 BR SCT005 YLO2

TAF TAF EGDR
Valid from the 20 at 09:00 until the 20 at 18:00 UTC


200808Z 2009/2018 20020G30KT 6000 HZ FEW006 OVC010
TEMPO 2009/2012 5000 BR -RADZ SCT006
BECMG 2012/2014 20025G35KT
BECMG 2015/2017 21030G40KT 8000 -RA SCT006 OVC010
PROB30
TEMPO 2015/2018 6000 RA BKN004
No reported NOTAMs for that airfield.
2 SIGMETs reported for the London FIR (EGTT) :
 
Severe mountain waves
EGTT SIGMET 07 VALID 201300/201700 EGRR
EGTT LONDON FIR SEV MTW FCST WI N5008 W00516 - N5231 W00338 - N5310 W00040 - N5117 W00127 - N5008 W00516 FL040/240 STNR INTSF=
Severe turbulence
EGTT SIGMET 06 VALID 201300/201700 EGRR
EGTT LONDON FIR SEV TURB FCST S OF N5023 AND W OF W00655 SFC/FL060 MOV NE 25KT INTSF=



MET'MAP, your aeronautical weather chart ! - Copyright ORBIFLY December 2007 - Disclaimer

ORBIFLY MET'MAP TEAM :

Programming & Development : Alexandra Zaïnal
Concept & Development : Baudouin d'Aumeries
Co-Development & Prog : Marc-Olivier Méhu
Technical & hardware support : Manuel Goepfert

Contact : metmap@orbifly.com




SOURCES & CREDITS :

   NOAA